Time;durP1;ratioP1;P1;durP2;ratioP2;P2;SDS_P1;SDS_P2;PMS_P1;PMS_P2;Temp;Humidity;BMP_temperature;BMP_pressure;BME280_temperature;BME280_humidity;BME280_pressure;Samples;Min_cycle;Max_cycle;Signal;HPM_P1;HPM_P2
2022/06/27 00:00:38;;;;;;;5.18;3.58;;;17.40;99.90;;;;;;5074852;28;20044;-53
2022/06/27 00:03:04;;;;;;;5.40;3.95;;;17.30;99.90;;;;;;5074860;28;20047;-52
2022/06/27 00:05:30;;;;;;;5.10;3.78;;;17.30;99.90;;;;;;5074655;28;20414;-50
2022/06/27 00:07:55;;;;;;;4.80;4.00;;;17.30;99.90;;;;;;5074734;28;20043;-50
2022/06/27 00:10:21;;;;;;;5.10;4.57;;;17.30;99.90;;;;;;5074682;28;20106;-49
2022/06/27 00:12:47;;;;;;;5.05;4.53;;;17.50;99.90;;;;;;5074753;28;20137;-49
2022/06/27 00:15:12;;;;;;;7.22;4.72;;;17.20;99.90;;;;;;5074550;28;20044;-53
2022/06/27 00:17:39;;;;;;;5.78;5.18;;;17.20;99.90;;;;;;5074535;28;20415;-53
2022/06/27 00:20:05;;;;;;;6.10;4.47;;;17.20;99.90;;;;;;5074845;28;20518;-50
2022/06/27 00:22:31;;;;;;;5.53;5.00;;;17.20;99.90;;;;;;5074307;28;20075;-53
2022/06/27 00:24:57;;;;;;;7.10;5.90;;;17.20;99.90;;;;;;5074236;28;20390;-50
2022/06/27 00:27:22;;;;;;;7.82;5.28;;;17.20;99.90;;;;;;5074440;28;20048;-49
2022/06/27 00:29:48;;;;;;;6.13;5.40;;;17.20;99.90;;;;;;5074523;28;20380;-50
2022/06/27 00:32:14;;;;;;;6.13;4.88;;;17.20;99.90;;;;;;5073079;28;20032;-49
2022/06/27 00:34:40;;;;;;;6.95;5.13;;;17.20;99.90;;;;;;5074132;28;20457;-51
2022/06/27 00:37:06;;;;;;;5.43;4.90;;;17.20;99.90;;;;;;5073989;28;20075;-50
2022/06/27 00:39:32;;;;;;;6.10;5.50;;;17.20;99.90;;;;;;5074099;28;20080;-53
2022/06/27 00:41:57;;;;;;;5.90;5.28;;;17.30;99.90;;;;;;5074120;28;20124;-53
2022/06/27 00:44:32;;;;;;;5.63;5.10;;;17.30;99.90;;;;;;5073048;28;20121;-50
2022/06/27 00:46:58;;;;;;;6.32;5.32;;;17.30;99.90;;;;;;5073915;28;20048;-49
2022/06/27 00:49:24;;;;;;;6.00;5.50;;;17.30;99.90;;;;;;5073739;28;20048;-50
2022/06/27 00:51:49;;;;;;;5.95;5.35;;;17.40;99.90;;;;;;5073633;28;20044;-50
2022/06/27 00:54:15;;;;;;;6.80;5.50;;;17.40;99.90;;;;;;5073870;28;20048;-53
2022/06/27 00:56:41;;;;;;;7.57;5.50;;;17.40;99.90;;;;;;5073380;28;20075;-49
2022/06/27 00:59:06;;;;;;;6.55;5.60;;;17.40;99.90;;;;;;5073538;28;20037;-48
2022/06/27 01:01:32;;;;;;;6.78;6.07;;;17.40;99.90;;;;;;5073679;28;20045;-53
2022/06/27 01:04:00;;;;;;;8.32;6.05;;;17.40;99.90;;;;;;5073452;28;20079;-50
2022/06/27 01:06:27;;;;;;;6.43;5.82;;;17.40;99.90;;;;;;5073411;28;20044;-52
2022/06/27 01:08:53;;;;;;;6.53;5.85;;;17.40;99.90;;;;;;5073592;28;20090;-50
2022/06/27 01:11:19;;;;;;;8.35;6.90;;;17.40;99.90;;;;;;5073486;28;20044;-49
2022/06/27 01:13:45;;;;;;;8.15;6.43;;;17.40;99.90;;;;;;5072096;28;20502;-49
2022/06/27 01:16:11;;;;;;;7.85;6.50;;;17.40;99.90;;;;;;5073437;28;20083;-53
2022/06/27 01:18:36;;;;;;;7.18;6.30;;;17.40;99.90;;;;;;5073282;28;20047;-50
2022/06/27 01:21:03;;;;;;;7.90;7.10;;;17.40;99.90;;;;;;5073154;28;20516;-51
2022/06/27 01:23:29;;;;;;;7.43;6.72;;;17.40;99.90;;;;;;5073284;28;20040;-53
2022/06/27 01:25:54;;;;;;;7.60;6.82;;;17.40;99.90;;;;;;5073250;28;20406;-53
2022/06/27 01:28:20;;;;;;;7.35;6.57;;;17.30;99.90;;;;;;5071919;28;20087;-49
2022/06/27 01:30:47;;;;;;;7.55;6.50;;;17.40;99.90;;;;;;5073099;28;20037;-50
2022/06/27 01:33:13;;;;;;;7.70;7.00;;;17.60;99.90;;;;;;5073106;28;20055;-50
2022/06/27 01:35:39;;;;;;;8.38;7.68;;;17.40;99.90;;;;;;5073141;28;20041;-48
2022/06/27 01:38:04;;;;;;;9.27;8.40;;;17.40;99.90;;;;;;5072953;28;20090;-50
2022/06/27 01:40:30;;;;;;;9.68;7.70;;;17.30;99.90;;;;;;5073100;28;20062;-50
2022/06/27 01:42:56;;;;;;;9.02;7.97;;;17.30;99.90;;;;;;5073002;28;20411;-50
2022/06/27 01:45:22;;;;;;;8.75;8.00;;;17.30;99.90;;;;;;5072927;28;20071;-48
2022/06/27 01:47:48;;;;;;;8.70;8.00;;;17.20;99.90;;;;;;5072900;28;20495;-50
2022/06/27 01:53:04;;;;;;;9.40;8.38;;;17.20;99.90;;;;;;5011185;28;20144;-69
2022/06/27 01:55:29;;;;;;;10.10;9.18;;;17.20;99.90;;;;;;5042636;28;20505;-68
2022/06/27 01:57:56;;;;;;;11.85;9.85;;;17.20;99.90;;;;;;5012911;28;20054;-69
2022/06/27 02:00:22;;;;;;;10.30;9.30;;;17.20;99.90;;;;;;5012806;28;20120;-69
2022/06/27 02:02:47;;;;;;;10.25;9.23;;;17.20;99.90;;;;;;5013170;28;20468;-69
2022/06/27 02:05:13;;;;;;;13.77;9.80;;;17.20;99.90;;;;;;5013226;28;20045;-69
2022/06/27 02:07:42;;;;;;;9.77;8.80;;;17.20;99.90;;;;;;5013064;28;20034;-69
2022/06/27 02:10:08;;;;;;;10.13;9.00;;;17.10;99.90;;;;;;4993429;28;20069;-69
2022/06/27 02:12:34;;;;;;;10.55;9.65;;;17.10;99.90;;;;;;4993345;28;20482;-69
2022/06/27 02:15:00;;;;;;;10.07;9.02;;;17.10;99.90;;;;;;4995582;28;20442;-69
2022/06/27 02:17:25;;;;;;;12.07;10.90;;;17.10;99.90;;;;;;4993566;28;20125;-69
2022/06/27 02:19:52;;;;;;;10.27;9.35;;;17.00;99.90;;;;;;4976013;28;20482;-69
2022/06/27 02:22:17;;;;;;;11.30;10.07;;;17.00;99.90;;;;;;4997501;28;20120;-69
2022/06/27 02:24:43;;;;;;;11.73;10.63;;;17.10;99.90;;;;;;4975773;28;20109;-70
2022/06/27 02:27:10;;;;;;;11.27;10.18;;;17.20;99.90;;;;;;5012814;28;20038;-70
2022/06/27 02:29:37;;;;;;;11.07;10.10;;;16.90;99.90;;;;;;5012608;28;20138;-70
2022/06/27 02:32:03;;;;;;;10.93;9.77;;;17.00;99.90;;;;;;5013002;28;20045;-70
2022/06/27 02:34:29;;;;;;;10.68;9.55;;;17.00;99.90;;;;;;5012768;28;20276;-69
2022/06/27 02:36:56;;;;;;;12.70;11.45;;;17.00;99.90;;;;;;5012782;28;20404;-69
2022/06/27 02:39:24;;;;;;;12.93;11.60;;;17.00;99.90;;;;;;5012667;28;20133;-69
2022/06/27 02:41:58;;;;;;;11.63;10.60;;;17.00;99.90;;;;;;5012586;28;20048;-69
2022/06/27 02:44:26;;;;;;;10.70;9.70;;;17.00;99.90;;;;;;5012871;28;20112;-70
2022/06/27 02:46:52;;;;;;;13.85;12.55;;;17.10;99.90;;;;;;5012863;28;20038;-70
2022/06/27 02:49:19;;;;;;;12.45;11.15;;;17.10;99.90;;;;;;5012658;28;20050;-70
2022/06/27 02:52:03;;;;;;;12.98;11.77;;;17.00;99.90;;;;;;5011922;28;20053;-69
2022/06/27 02:55:09;;;;;;;12.80;11.43;;;17.10;99.90;;;;;;5011270;28;20046;-70
2022/06/27 02:58:01;;;;;;;13.18;11.98;;;17.10;99.90;;;;;;5012717;28;20117;-70
2022/06/27 03:00:28;;;;;;;12.90;11.43;;;17.00;99.90;;;;;;5012515;28;20077;-70
2022/06/27 03:02:54;;;;;;;12.57;11.48;;;16.90;99.90;;;;;;5011471;28;20560;-71
2022/06/27 03:05:20;;;;;;;11.75;10.57;;;17.00;99.90;;;;;;5011302;28;20052;-70
2022/06/27 03:07:46;;;;;;;11.90;10.75;;;16.90;99.90;;;;;;5014179;28;20045;-70
2022/06/27 03:10:12;;;;;;;11.68;10.32;;;16.90;99.90;;;;;;5016147;28;20050;-70
2022/06/27 03:12:37;;;;;;;11.30;10.20;;;16.90;99.90;;;;;;5015338;28;20050;-70
2022/06/27 03:15:03;;;;;;;9.60;8.60;;;16.80;99.90;;;;;;5016098;28;20042;-70
2022/06/27 03:17:29;;;;;;;9.25;8.43;;;16.70;99.90;;;;;;5016053;28;20404;-70
2022/06/27 03:19:56;;;;;;;8.77;7.75;;;16.70;99.90;;;;;;5016317;28;20048;-71
2022/06/27 03:22:22;;;;;;;9.40;8.50;;;16.60;99.90;;;;;;5014992;28;20054;-71
2022/06/27 03:24:47;;;;;;;9.93;8.30;;;16.60;99.90;;;;;;5016050;28;20501;-70
2022/06/27 03:27:13;;;;;;;8.93;8.13;;;16.50;99.90;;;;;;5017536;28;20505;-70
2022/06/27 03:29:38;;;;;;;9.65;8.55;;;16.50;99.90;;;;;;5019085;28;20046;-70
2022/06/27 03:32:04;;;;;;;8.60;7.78;;;16.50;99.90;;;;;;5015923;28;20041;-70
2022/06/27 03:34:30;;;;;;;9.50;8.70;;;16.50;99.90;;;;;;5021549;28;20038;-70
2022/06/27 03:36:56;;;;;;;7.00;6.15;;;16.40;99.90;;;;;;5016018;28;20065;-70
2022/06/27 03:39:22;;;;;;;5.57;5.07;;;16.40;99.90;;;;;;5015529;28;20049;-70
2022/06/27 03:41:48;;;;;;;4.82;4.30;;;16.20;99.90;;;;;;5015755;28;20042;-70
2022/06/27 03:44:14;;;;;;;4.10;3.72;;;16.20;99.90;;;;;;5015590;28;20046;-70
2022/06/27 03:46:40;;;;;;;5.03;4.63;;;16.20;99.90;;;;;;5030737;28;20041;-71
2022/06/27 03:51:50;;;;;;;6.22;5.63;;;16.00;99.90;;;;;;5015343;28;20064;-70
2022/06/27 03:54:16;;;;;;;5.38;4.90;;;16.00;99.90;;;;;;5015460;28;20107;-71
2022/06/27 03:56:42;;;;;;;4.95;4.47;;;;;;;;;;5015349;28;20516;-70
2022/06/27 03:59:08;;;;;;;5.28;4.53;;;16.00;99.90;;;;;;5013807;28;20540;-70
2022/06/27 04:01:34;;;;;;;5.45;4.20;;;;;;;;;;5015591;28;20052;-70
2022/06/27 04:04:00;;;;;;;4.53;4.13;;;15.80;99.90;;;;;;5014297;28;20086;-70
2022/06/27 04:06:26;;;;;;;4.38;3.95;;;;;;;;;;5014231;28;20457;-70
2022/06/27 04:08:52;;;;;;;5.15;4.25;;;15.90;99.90;;;;;;5015225;28;20493;-71
2022/06/27 04:11:17;;;;;;;5.03;4.53;;;16.00;99.90;;;;;;5015114;28;20126;-71
2022/06/27 04:13:43;;;;;;;4.30;3.90;;;16.00;99.90;;;;;;5014841;28;20038;-71
2022/06/27 04:16:08;;;;;;;5.43;4.10;;;15.90;99.90;;;;;;5015254;28;20172;-71
2022/06/27 04:18:34;;;;;;;4.90;4.40;;;16.00;99.90;;;;;;5014791;28;20050;-71
2022/06/27 04:21:00;;;;;;;4.78;4.32;;;15.90;99.90;;;;;;5015085;28;20125;-70
2022/06/27 04:23:25;;;;;;;5.88;5.13;;;15.90;99.90;;;;;;5014971;28;20091;-71
2022/06/27 04:25:52;;;;;;;5.80;5.38;;;15.90;99.90;;;;;;5014035;28;20048;-71
2022/06/27 04:28:17;;;;;;;7.25;6.38;;;15.90;99.90;;;;;;5014820;28;20177;-71
2022/06/27 04:30:43;;;;;;;6.80;6.30;;;15.90;99.90;;;;;;5014691;28;20125;-70
2022/06/27 04:33:09;;;;;;;5.90;5.40;;;15.90;99.90;;;;;;5014921;28;20053;-71
2022/06/27 04:35:36;;;;;;;5.72;5.13;;;16.00;99.90;;;;;;5014557;28;20148;-71
2022/06/27 04:38:02;;;;;;;5.30;4.85;;;16.10;99.90;;;;;;5014636;28;20064;-70
2022/06/27 04:40:28;;;;;;;5.07;4.68;;;16.00;99.90;;;;;;5024547;28;20042;-70
2022/06/27 04:42:56;;;;;;;4.72;4.15;;;15.90;99.90;;;;;;5015926;28;20052;-71
2022/06/27 04:45:22;;;;;;;4.82;4.35;;;15.90;99.90;;;;;;5014903;28;20173;-71
2022/06/27 04:47:48;;;;;;;4.40;4.10;;;15.90;99.90;;;;;;5017124;28;20069;-71
2022/06/27 04:50:19;;;;;;;5.10;4.30;;;15.80;99.90;;;;;;5014453;28;20379;-71
2022/06/27 04:52:47;;;;;;;4.55;4.15;;;16.00;99.90;;;;;;5014464;28;20057;-71
2022/06/27 04:55:13;;;;;;;4.88;4.40;;;16.00;99.90;;;;;;5014300;28;20485;-71
2022/06/27 04:57:42;;;;;;;5.07;4.60;;;16.00;99.90;;;;;;5014522;28;20393;-71
2022/06/27 05:00:11;;;;;;;5.65;5.05;;;16.10;99.90;;;;;;5014315;28;20049;-71
2022/06/27 05:02:37;;;;;;;4.97;4.57;;;16.00;99.90;;;;;;5014149;28;20528;-70
2022/06/27 05:05:06;;;;;;;5.70;5.20;;;16.00;99.90;;;;;;5012932;28;20081;-71
2022/06/27 05:07:32;;;;;;;5.30;4.80;;;16.10;99.90;;;;;;5014127;28;20042;-71
2022/06/27 05:09:57;;;;;;;5.50;5.07;;;16.00;99.90;;;;;;5014239;28;20512;-70
2022/06/27 05:12:27;;;;;;;5.35;4.90;;;16.10;99.90;;;;;;5014252;28;20038;-70
2022/06/27 05:14:53;;;;;;;4.82;4.43;;;15.90;99.90;;;;;;5014510;28;20056;-71
2022/06/27 05:17:19;;;;;;;4.28;3.88;;;16.00;99.90;;;;;;5014044;28;20136;-71
2022/06/27 05:19:46;;;;;;;5.00;4.22;;;;;;;;;;5014171;28;20034;-70
2022/06/27 05:22:12;;;;;;;3.60;3.30;;;16.10;99.90;;;;;;5014058;28;20125;-70
2022/06/27 05:24:38;;;;;;;3.97;3.65;;;16.20;99.90;;;;;;5013858;28;20386;-71
2022/06/27 05:27:05;;;;;;;3.50;3.20;;;;;;;;;;5013965;28;20056;-70
2022/06/27 05:29:32;;;;;;;3.85;3.55;;;16.00;99.90;;;;;;5013891;28;20049;-70
2022/06/27 05:31:59;;;;;;;3.90;3.28;;;16.30;99.90;;;;;;5013627;28;20096;-70
2022/06/27 05:34:24;;;;;;;3.95;3.60;;;16.20;99.90;;;;;;5012927;28;20081;-70
2022/06/27 05:36:50;;;;;;;5.70;4.15;;;16.20;99.90;;;;;;5013918;28;20493;-70
2022/06/27 05:39:16;;;;;;;4.85;4.10;;;16.10;99.90;;;;;;5012365;28;20080;-71
2022/06/27 05:41:43;;;;;;;4.50;4.10;;;16.20;99.90;;;;;;5014127;28;20160;-70
2022/06/27 05:44:09;;;;;;;4.90;4.50;;;16.20;99.90;;;;;;5013897;28;20056;-70
2022/06/27 05:46:37;;;;;;;4.60;4.20;;;16.40;99.90;;;;;;5029096;28;20449;-70
2022/06/27 05:49:03;;;;;;;4.40;4.10;;;16.50;99.90;;;;;;5013889;28;20038;-70
2022/06/27 05:51:29;;;;;;;4.72;4.32;;;16.50;99.90;;;;;;5013705;28;20064;-70
2022/06/27 05:54:00;;;;;;;5.50;4.30;;;16.60;99.90;;;;;;5018559;28;20042;-71
2022/06/27 05:56:28;;;;;;;4.10;3.78;;;16.60;99.90;;;;;;5013991;28;20045;-70
2022/06/27 05:58:55;;;;;;;4.72;4.43;;;16.60;99.90;;;;;;5014449;28;20042;-70
2022/06/27 06:01:25;;;;;;;4.80;4.40;;;16.60;99.90;;;;;;5014652;28;20052;-70
2022/06/27 06:03:52;;;;;;;6.38;4.57;;;16.70;99.90;;;;;;5013548;28;20050;-70
2022/06/27 06:06:17;;;;;;;4.53;4.13;;;16.70;99.90;;;;;;5013549;28;20046;-70
2022/06/27 06:08:43;;;;;;;3.88;3.58;;;16.60;99.90;;;;;;5013606;28;20049;-70
2022/06/27 06:11:10;;;;;;;4.43;4.03;;;16.70;99.90;;;;;;5013530;28;20034;-70
2022/06/27 06:13:36;;;;;;;4.37;3.60;;;16.60;99.90;;;;;;5013335;28;20119;-70
2022/06/27 06:16:02;;;;;;;4.35;3.47;;;16.60;99.90;;;;;;5012387;28;20537;-70
2022/06/27 06:18:30;;;;;;;3.38;3.08;;;16.60;99.90;;;;;;5013312;28;20497;-70
2022/06/27 06:20:56;;;;;;;3.22;3.00;;;16.60;99.90;;;;;;5013220;28;20100;-70
2022/06/27 06:23:21;;;;;;;2.72;2.53;;;16.60;99.90;;;;;;5013419;28;20432;-70
2022/06/27 06:25:47;;;;;;;3.05;2.63;;;16.50;99.90;;;;;;5013188;28;20100;-70
2022/06/27 06:28:13;;;;;;;3.17;2.90;;;16.60;99.90;;;;;;5013298;28;20109;-70
2022/06/27 06:30:39;;;;;;;3.45;3.15;;;16.60;99.90;;;;;;5013304;28;20462;-70
2022/06/27 06:33:05;;;;;;;3.20;3.00;;;16.60;99.90;;;;;;5013286;28;20042;-70
2022/06/27 06:35:33;;;;;;;3.05;2.80;;;16.70;99.90;;;;;;5013068;28;20089;-70
2022/06/27 06:37:59;;;;;;;3.25;2.97;;;16.70;99.90;;;;;;5012070;28;20057;-70
2022/06/27 06:40:26;;;;;;;3.97;3.13;;;16.70;99.90;;;;;;5013332;28;20046;-69
2022/06/27 06:42:52;;;;;;;3.13;2.78;;;16.80;99.90;;;;;;5014710;28;20046;-71
2022/06/27 06:45:18;;;;;;;3.45;3.15;;;16.90;99.90;;;;;;5016940;28;20383;-70
2022/06/27 06:47:45;;;;;;;3.17;2.97;;;16.90;99.90;;;;;;5016870;28;20045;-70
2022/06/27 06:50:16;;;;;;;3.70;3.17;;;17.10;99.90;;;;;;5016959;28;20378;-70
2022/06/27 06:52:42;;;;;;;3.55;3.25;;;17.10;99.90;;;;;;5016997;28;20054;-70
2022/06/27 06:55:09;;;;;;;3.90;3.50;;;17.10;99.90;;;;;;5016876;28;20046;-70
2022/06/27 06:57:38;;;;;;;3.10;2.90;;;17.10;99.90;;;;;;5016909;28;20042;-70
2022/06/27 07:00:05;;;;;;;3.70;3.20;;;17.10;99.90;;;;;;5016563;28;20124;-70
2022/06/27 07:02:31;;;;;;;3.38;2.90;;;17.10;99.90;;;;;;5016483;28;20053;-70
2022/06/27 07:04:58;;;;;;;3.92;3.28;;;17.10;99.90;;;;;;5016939;28;20057;-70
2022/06/27 07:07:25;;;;;;;4.03;3.10;;;17.10;99.90;;;;;;5020651;28;20049;-70
2022/06/27 07:09:51;;;;;;;4.03;3.63;;;17.10;99.90;;;;;;5016685;28;20038;-70
2022/06/27 07:12:17;;;;;;;4.35;3.88;;;17.10;99.90;;;;;;5020697;28;20057;-69
2022/06/27 07:14:45;;;;;;;5.47;4.13;;;17.10;99.90;;;;;;5016501;28;20126;-69
2022/06/27 07:17:13;;;;;;;4.38;4.00;;;17.10;99.90;;;;;;5016340;28;20468;-70
2022/06/27 07:19:38;;;;;;;4.80;4.05;;;17.10;99.90;;;;;;5016309;28;20126;-70
2022/06/27 07:22:07;;;;;;;4.43;4.03;;;17.10;99.90;;;;;;5016385;28;20125;-70
2022/06/27 07:24:32;;;;;;;4.55;3.55;;;17.10;99.90;;;;;;5016261;28;20054;-70
2022/06/27 07:26:59;;;;;;;3.58;3.33;;;17.10;99.90;;;;;;5016216;28;20116;-69
2022/06/27 07:29:26;;;;;;;4.43;3.33;;;17.10;99.90;;;;;;5016104;28;20095;-70
2022/06/27 07:31:53;;;;;;;4.13;3.72;;;17.10;99.90;;;;;;5016341;28;20073;-70
2022/06/27 07:34:21;;;;;;;3.42;3.13;;;17.10;99.90;;;;;;5016150;28;20077;-70
2022/06/27 07:36:47;;;;;;;4.07;3.78;;;17.20;99.90;;;;;;5015965;28;20546;-70
2022/06/27 07:39:14;;;;;;;4.47;4.00;;;17.30;99.90;;;;;;5016104;28;20088;-70
2022/06/27 07:41:40;;;;;;;4.43;4.03;;;17.30;99.90;;;;;;5031334;28;20069;-70
2022/06/27 07:44:06;;;;;;;4.72;4.00;;;17.40;99.90;;;;;;5015728;28;20532;-71
2022/06/27 07:46:34;;;;;;;5.97;4.80;;;17.50;99.90;;;;;;5015754;28;20107;-70
2022/06/27 07:49:00;;;;;;;6.18;4.88;;;;;;;;;;5031292;28;20038;-71
2022/06/27 07:51:26;;;;;;;5.07;4.57;;;17.60;99.90;;;;;;5015760;28;20054;-70
2022/06/27 07:53:52;;;;;;;5.68;4.95;;;17.60;99.90;;;;;;5015408;28;20053;-70
2022/06/27 07:56:20;;;;;;;5.00;4.60;;;17.80;99.90;;;;;;5014475;28;20050;-70
2022/06/27 07:58:46;;;;;;;5.22;4.72;;;17.80;99.90;;;;;;5014088;28;20053;-70
2022/06/27 08:01:15;;;;;;;5.20;4.80;;;17.80;99.90;;;;;;5016272;28;20037;-70
2022/06/27 08:03:44;;;;;;;4.85;4.43;;;18.00;99.90;;;;;;5015485;28;20534;-70
2022/06/27 08:06:20;;;;;;;4.47;4.15;;;18.10;99.90;;;;;;5015593;28;20042;-70
2022/06/27 08:08:52;;;;;;;3.80;3.50;;;18.00;99.90;;;;;;5015481;28;20065;-70
2022/06/27 08:11:23;;;;;;;4.22;3.83;;;18.00;99.90;;;;;;5014260;28;20100;-70
2022/06/27 08:13:52;;;;;;;4.10;3.70;;;18.10;99.90;;;;;;5015529;28;20050;-70
2022/06/27 08:16:20;;;;;;;3.50;3.17;;;18.10;99.90;;;;;;5015430;28;20049;-70
2022/06/27 08:18:50;;;;;;;4.25;3.50;;;18.10;99.90;;;;;;5015388;28;20041;-70
2022/06/27 08:21:24;;;;;;;3.65;3.35;;;18.00;99.90;;;;;;5020014;28;20073;-70
2022/06/27 08:23:51;;;;;;;4.45;3.40;;;18.00;99.90;;;;;;5014283;28;20049;-70
2022/06/27 08:26:17;;;;;;;3.60;3.40;;;18.10;99.90;;;;;;5020697;28;20458;-70
2022/06/27 08:28:47;;;;;;;4.30;3.90;;;18.00;99.90;;;;;;5013870;28;20053;-70
2022/06/27 08:31:13;;;;;;;4.38;3.28;;;18.10;99.90;;;;;;5015267;28;20084;-70
2022/06/27 08:33:40;;;;;;;3.35;3.05;;;18.10;99.90;;;;;;5015049;28;20050;-70
2022/06/27 08:36:07;;;;;;;3.45;3.25;;;18.20;99.90;;;;;;5014860;28;20038;-70
2022/06/27 08:38:39;;;;;;;3.37;3.07;;;18.10;99.90;;;;;;5015081;28;20129;-70
2022/06/27 08:41:05;;;;;;;3.60;3.00;;;18.10;99.90;;;;;;5015000;28;20629;-70
2022/06/27 08:43:31;;;;;;;3.57;2.80;;;18.10;99.90;;;;;;5014792;28;20459;-70
2022/06/27 08:45:58;;;;;;;3.63;3.00;;;18.10;99.90;;;;;;5014744;28;20121;-70
2022/06/27 08:48:23;;;;;;;3.20;2.97;;;18.30;99.90;;;;;;5013415;28;20501;-70
2022/06/27 08:50:50;;;;;;;2.90;2.70;;;18.30;99.90;;;;;;5014549;28;20053;-70
2022/06/27 08:53:17;;;;;;;3.00;2.70;;;18.30;99.90;;;;;;5014810;28;20038;-69
2022/06/27 08:55:47;;;;;;;3.30;3.00;;;18.30;99.90;;;;;;5014724;28;20100;-70
2022/06/27 08:58:14;;;;;;;2.80;2.60;;;18.50;99.90;;;;;;5014625;28;20061;-69
2022/06/27 09:00:45;;;;;;;3.00;2.80;;;18.50;99.90;;;;;;5014465;28;20046;-69
2022/06/27 09:03:18;;;;;;;3.00;2.60;;;18.50;99.90;;;;;;5014323;28;20066;-70
2022/06/27 09:05:57;;;;;;;2.70;2.50;;;18.60;99.90;;;;;;5028853;28;20048;-70
2022/06/27 09:08:27;;;;;;;3.13;2.50;;;18.60;99.90;;;;;;5014322;28;20042;-70
2022/06/27 09:10:53;;;;;;;2.08;1.95;;;18.60;99.90;;;;;;5014402;28;20046;-70
2022/06/27 09:13:20;;;;;;;2.30;2.10;;;18.60;99.90;;;;;;5014238;28;20117;-69
2022/06/27 09:15:55;;;;;;;4.00;2.35;;;18.60;99.90;;;;;;5014020;28;20054;-70
2022/06/27 09:18:29;;;;;;;3.65;2.55;;;18.50;99.90;;;;;;5014012;28;20486;-70
2022/06/27 09:20:58;;;;;;;4.05;3.13;;;18.50;99.90;;;;;;5014262;28;20100;-69
2022/06/27 09:23:37;;;;;;;3.17;2.97;;;18.40;99.90;;;;;;5012983;28;20058;-69
2022/06/27 09:26:06;;;;;;;4.78;3.80;;;18.40;99.90;;;;;;5014011;28;20485;-70
2022/06/27 09:28:39;;;;;;;3.42;3.15;;;18.30;99.90;;;;;;5013671;28;20096;-71
2022/06/27 09:31:10;;;;;;;3.40;3.10;;;18.30;99.90;;;;;;5014143;28;20052;-70
2022/06/27 09:33:38;;;;;;;3.60;3.30;;;18.40;99.90;;;;;;5018249;28;20048;-70
2022/06/27 09:36:11;;;;;;;;;;;18.50;99.90;;;;;;5014564;28;20493;-70
2022/06/27 09:38:40;;;;;;;3.83;3.45;;;18.60;99.90;;;;;;5021768;28;19984;-70
2022/06/27 09:41:09;;;;;;;4.43;3.72;;;18.70;99.90;;;;;;5014084;28;20042;-70
2022/06/27 09:43:37;;;;;;;3.60;3.05;;;18.80;99.90;;;;;;5013624;28;20046;-70
2022/06/27 09:46:04;;;;;;;4.22;3.63;;;18.90;99.90;;;;;;5014011;28;20076;-70
2022/06/27 09:48:30;;;;;;;4.07;3.20;;;18.90;99.90;;;;;;5013588;28;20084;-70
2022/06/27 09:50:57;;;;;;;5.10;3.78;;;19.00;99.90;;;;;;5013304;28;20046;-70
2022/06/27 09:53:27;;;;;;;4.15;3.75;;;19.00;99.90;;;;;;5013422;28;20041;-69
2022/06/27 09:55:54;;;;;;;4.20;3.90;;;19.00;99.90;;;;;;5013590;28;20117;-69
2022/06/27 09:58:20;;;;;;;4.43;4.03;;;19.10;99.90;;;;;;5013537;28;20401;-70
2022/06/27 10:00:47;;;;;;;5.22;4.82;;;19.20;99.90;;;;;;5013583;28;20046;-69
2022/06/27 10:03:13;;;;;;;;;;;19.10;99.90;;;;;;5014039;28;20049;-70
2022/06/27 10:05:40;;;;;;;3.95;3.00;;;19.10;99.90;;;;;;5013436;28;19921;-69
2022/06/27 10:08:06;;;;;;;3.37;3.07;;;19.20;99.90;;;;;;5013673;28;20157;-69
2022/06/27 10:11:00;;;;;;;5.60;3.28;;;19.40;99.90;;;;;;5013587;28;20083;-69
2022/06/27 10:13:28;;;;;;;3.72;3.00;;;19.50;99.90;;;;;;5013293;28;20050;-69
2022/06/27 10:16:04;;;;;;;3.95;3.35;;;19.60;99.90;;;;;;5028658;28;20046;-69
2022/06/27 10:18:59;;;;;;;4.25;3.42;;;19.60;99.90;;;;;;5032593;28;20489;-69
2022/06/27 10:21:28;;;;;;;3.55;3.25;;;19.60;99.90;;;;;;5017450;28;20092;-69
2022/06/27 10:24:18;;;;;;;3.92;3.50;;;19.50;99.90;;;;;;5017312;28;20104;-69
2022/06/27 10:26:45;;;;;;;3.15;2.92;;;19.60;99.90;;;;;;5017068;28;20187;-69
2022/06/27 10:29:29;;;;;;;2.72;2.53;;;19.60;99.90;;;;;;5017274;28;20046;-69
2022/06/27 10:31:57;;;;;;;2.83;2.50;;;19.70;99.90;;;;;;5017336;28;20540;-69
2022/06/27 10:34:37;;;;;;;3.55;2.40;;;19.80;99.90;;;;;;5015840;28;20042;-69
2022/06/27 10:37:24;;;;;;;4.05;2.80;;;19.90;99.90;;;;;;5017062;28;20414;-69
2022/06/27 10:39:51;;;;;;;5.13;2.97;;;20.20;99.90;;;;;;5017138;28;20073;-69
2022/06/27 10:42:48;;;;;;;2.70;2.50;;;20.30;99.90;;;;;;5016928;28;20393;-69
2022/06/27 10:45:20;;;;;;;2.50;2.20;;;20.50;99.90;;;;;;5017238;28;20053;-69
2022/06/27 10:47:49;;;;;;;2.72;2.40;;;20.60;99.90;;;;;;5020029;28;20374;-69
2022/06/27 10:50:18;;;;;;;2.70;2.30;;;20.60;99.90;;;;;;5015597;28;20074;-69
2022/06/27 10:52:44;;;;;;;2.30;2.10;;;20.70;99.90;;;;;;5022017;28;20053;-69
2022/06/27 10:55:29;;;;;;;2.37;1.87;;;20.80;99.90;;;;;;5016870;28;20049;-69
2022/06/27 10:57:58;;;;;;;2.20;2.00;;;20.80;99.90;;;;;;5016522;28;20034;-69
2022/06/27 11:00:35;;;;;;;3.50;1.98;;;20.80;99.90;;;;;;5016446;28;20064;-69
2022/06/27 11:03:01;;;;;;;1.95;1.70;;;20.80;99.90;;;;;;5016647;28;20045;-69
2022/06/27 11:05:29;;;;;;;2.78;2.58;;;20.80;99.90;;;;;;5016726;28;20046;-69
2022/06/27 11:07:55;;;;;;;2.75;2.55;;;20.70;99.90;;;;;;5016423;28;20049;-69
2022/06/27 11:10:21;;;;;;;2.67;2.47;;;20.80;99.90;;;;;;5016283;28;20041;-69
2022/06/27 11:12:46;;;;;;;2.92;2.05;;;20.60;99.90;;;;;;5015029;28;20489;-70
2022/06/27 11:15:12;;;;;;;2.88;2.45;;;20.70;99.90;;;;;;5016199;28;20053;-70
2022/06/27 11:17:42;;;;;;;2.53;2.30;;;20.70;99.90;;;;;;5016378;28;20052;-70
2022/06/27 11:20:17;;;;;;;2.50;2.30;;;20.60;99.90;;;;;;5016148;28;20518;-70
2022/06/27 11:22:46;;;;;;;3.15;2.85;;;20.70;99.90;;;;;;5014952;28;20405;-70
2022/06/27 11:25:12;;;;;;;3.00;2.80;;;20.60;99.90;;;;;;5015995;28;20404;-70
2022/06/27 11:27:50;;;;;;;4.10;3.20;;;20.70;99.90;;;;;;5015723;28;20137;-70
2022/06/27 11:33:31;;;;;;;2.83;2.53;;;20.60;99.90;;;;;;5016072;28;20120;-69
2022/06/27 11:35:58;;;;;;;2.40;2.20;;;20.60;99.90;;;;;;5016188;28;20134;-70
2022/06/27 11:38:45;;;;;;;2.30;2.10;;;20.60;99.90;;;;;;5015870;28;20034;-69
2022/06/27 11:41:13;;;;;;;3.58;2.53;;;20.60;99.90;;;;;;5015983;28;20073;-69
2022/06/27 11:43:46;;;;;;;4.32;3.53;;;20.60;99.90;;;;;;5015863;28;20061;-69
2022/06/27 11:46:26;;;;;;;3.75;3.47;;;20.60;99.90;;;;;;5015862;28;20042;-69
2022/06/27 11:49:00;;;;;;;3.92;3.63;;;20.50;99.90;;;;;;5015753;28;20042;-69
2022/06/27 11:51:43;;;;;;;4.53;4.18;;;20.50;99.90;;;;;;5015128;28;20532;-69
2022/06/27 11:54:15;;;;;;;4.18;3.88;;;20.40;99.90;;;;;;5015411;28;20045;-69
2022/06/27 11:56:42;;;;;;;4.22;3.92;;;20.30;99.90;;;;;;5015715;28;20041;-69
2022/06/27 11:59:10;;;;;;;5.82;4.13;;;20.30;99.90;;;;;;5019894;28;20132;-70
2022/06/27 12:01:57;;;;;;;5.40;4.55;;;20.40;99.90;;;;;;5015672;28;20041;-70
2022/06/27 12:04:26;;;;;;;4.80;4.40;;;20.40;99.90;;;;;;5021145;28;20045;-70
2022/06/27 12:06:57;;;;;;;4.43;4.03;;;20.40;99.90;;;;;;5016161;28;20289;-71
2022/06/27 12:09:28;;;;;;;5.65;5.15;;;20.50;99.90;;;;;;5015456;28;20050;-70
2022/06/27 12:12:04;;;;;;;5.40;5.00;;;20.60;99.90;;;;;;5015214;28;20124;-69
2022/06/27 12:14:31;;;;;;;5.40;4.90;;;20.70;99.90;;;;;;5015079;28;20053;-69
2022/06/27 12:16:58;;;;;;;5.85;5.45;;;20.70;99.90;;;;;;5015082;28;20046;-70
2022/06/27 12:19:30;;;;;;;6.28;5.75;;;20.80;99.90;;;;;;5015293;28;20085;-70
2022/06/27 12:21:55;;;;;;;6.20;5.70;;;20.80;99.90;;;;;;5013896;28;20049;-70
2022/06/27 12:24:22;;;;;;;5.60;5.10;;;20.80;99.90;;;;;;5015093;28;20482;-69
2022/06/27 12:26:48;;;;;;;5.82;5.05;;;20.80;99.90;;;;;;5015102;28;20053;-69
2022/06/27 12:29:13;;;;;;;6.93;5.50;;;20.70;99.90;;;;;;5014957;28;20462;-69
2022/06/27 12:31:40;;;;;;;6.15;5.45;;;20.60;99.90;;;;;;5015378;28;20096;-70
2022/06/27 12:34:06;;;;;;;5.70;5.20;;;20.60;99.90;;;;;;5015033;28;20046;-69
2022/06/27 12:36:32;;;;;;;5.88;4.88;;;20.60;99.90;;;;;;5015129;28;20046;-70
2022/06/27 12:38:59;;;;;;;5.35;4.95;;;20.50;99.90;;;;;;5014850;28;20072;-70
2022/06/27 12:41:25;;;;;;;;;;;20.50;99.90;;;;;;5015250;28;20176;-70
2022/06/27 12:43:51;;;;;;;4.60;4.20;;;20.50;99.90;;;;;;5014780;28;20003;-71
2022/06/27 12:46:18;;;;;;;5.18;4.68;;;20.40;99.90;;;;;;5014638;28;20038;-69
2022/06/27 12:48:44;;;;;;;4.78;4.32;;;20.40;99.90;;;;;;5014734;28;20179;-69
2022/06/27 12:51:11;;;;;;;6.00;5.22;;;20.40;99.90;;;;;;5014448;28;20057;-69
2022/06/27 12:53:37;;;;;;;4.97;4.57;;;20.30;99.90;;;;;;5014815;28;20049;-69
2022/06/27 12:56:04;;;;;;;5.47;4.97;;;20.30;99.90;;;;;;5015152;28;20042;-69
2022/06/27 12:58:32;;;;;;;5.07;4.68;;;20.30;99.90;;;;;;5014572;28;20405;-70
2022/06/27 13:00:58;;;;;;;4.70;4.30;;;20.20;99.90;;;;;;5014237;28;20048;-69